sensor_id;sensor_type;location;lat;lon;timestamp;P1;durP1;ratioP1;P2;durP2;ratioP2
14118;SDS011;7138;49.246;9.100;2023-02-28T00:00:40;7.72;;;2.55;;
14118;SDS011;7138;49.246;9.100;2023-02-28T00:03:08;5.25;;;2.83;;
14118;SDS011;7138;49.246;9.100;2023-02-28T00:05:34;6.35;;;2.47;;
14118;SDS011;7138;49.246;9.100;2023-02-28T00:07:59;4.57;;;2.70;;
14118;SDS011;7138;49.246;9.100;2023-02-28T00:10:26;6.13;;;3.15;;
14118;SDS011;7138;49.246;9.100;2023-02-28T00:12:58;5.65;;;2.83;;
14118;SDS011;7138;49.246;9.100;2023-02-28T00:15:28;7.18;;;2.90;;
14118;SDS011;7138;49.246;9.100;2023-02-28T00:17:54;5.60;;;2.63;;
14118;SDS011;7138;49.246;9.100;2023-02-28T00:20:20;6.97;;;3.00;;
14118;SDS011;7138;49.246;9.100;2023-02-28T00:22:47;7.63;;;3.05;;
14118;SDS011;7138;49.246;9.100;2023-02-28T00:25:16;7.05;;;2.80;;
14118;SDS011;7138;49.246;9.100;2023-02-28T00:27:44;9.25;;;3.15;;
14118;SDS011;7138;49.246;9.100;2023-02-28T00:30:11;5.22;;;2.88;;
14118;SDS011;7138;49.246;9.100;2023-02-28T00:32:44;5.40;;;2.47;;
14118;SDS011;7138;49.246;9.100;2023-02-28T00:35:10;5.95;;;3.67;;
14118;SDS011;7138;49.246;9.100;2023-02-28T00:37:37;5.85;;;3.28;;
14118;SDS011;7138;49.246;9.100;2023-02-28T00:40:04;7.85;;;3.05;;
14118;SDS011;7138;49.246;9.100;2023-02-28T00:42:32;6.38;;;2.95;;
14118;SDS011;7138;49.246;9.100;2023-02-28T00:44:58;7.10;;;3.40;;
14118;SDS011;7138;49.246;9.100;2023-02-28T00:47:25;4.68;;;2.63;;
14118;SDS011;7138;49.246;9.100;2023-02-28T00:49:52;6.10;;;3.50;;
14118;SDS011;7138;49.246;9.100;2023-02-28T00:52:18;6.25;;;3.40;;
14118;SDS011;7138;49.246;9.100;2023-02-28T00:54:44;7.70;;;3.42;;
14118;SDS011;7138;49.246;9.100;2023-02-28T00:57:10;6.10;;;3.20;;
14118;SDS011;7138;49.246;9.100;2023-02-28T00:59:35;6.47;;;3.45;;
14118;SDS011;7138;49.246;9.100;2023-02-28T01:02:01;6.97;;;3.50;;
14118;SDS011;7138;49.246;9.100;2023-02-28T01:04:27;7.13;;;3.17;;
14118;SDS011;7138;49.246;9.100;2023-02-28T01:06:54;5.47;;;3.28;;
14118;SDS011;7138;49.246;9.100;2023-02-28T01:09:20;6.78;;;3.60;;
14118;SDS011;7138;49.246;9.100;2023-02-28T01:11:46;8.13;;;3.63;;
14118;SDS011;7138;49.246;9.100;2023-02-28T01:14:12;6.35;;;3.47;;
14118;SDS011;7138;49.246;9.100;2023-02-28T01:16:40;7.60;;;3.65;;
14118;SDS011;7138;49.246;9.100;2023-02-28T01:19:06;7.60;;;3.28;;
14118;SDS011;7138;49.246;9.100;2023-02-28T01:21:31;7.60;;;3.40;;
14118;SDS011;7138;49.246;9.100;2023-02-28T01:23:59;6.55;;;3.67;;
14118;SDS011;7138;49.246;9.100;2023-02-28T01:26:26;6.57;;;3.65;;
14118;SDS011;7138;49.246;9.100;2023-02-28T01:28:52;9.13;;;3.75;;
14118;SDS011;7138;49.246;9.100;2023-02-28T01:31:18;9.18;;;3.58;;
14118;SDS011;7138;49.246;9.100;2023-02-28T01:33:46;6.60;;;3.67;;
14118;SDS011;7138;49.246;9.100;2023-02-28T01:36:13;7.40;;;3.25;;
14118;SDS011;7138;49.246;9.100;2023-02-28T01:38:41;6.45;;;3.47;;
14118;SDS011;7138;49.246;9.100;2023-02-28T01:41:11;7.20;;;3.90;;
14118;SDS011;7138;49.246;9.100;2023-02-28T01:43:52;7.15;;;3.47;;
14118;SDS011;7138;49.246;9.100;2023-02-28T01:46:22;7.57;;;3.67;;
14118;SDS011;7138;49.246;9.100;2023-02-28T01:48:51;6.85;;;3.55;;
14118;SDS011;7138;49.246;9.100;2023-02-28T01:51:22;7.97;;;3.67;;
14118;SDS011;7138;49.246;9.100;2023-02-28T01:53:55;6.15;;;3.17;;
14118;SDS011;7138;49.246;9.100;2023-02-28T01:56:29;6.72;;;3.58;;
14118;SDS011;7138;49.246;9.100;2023-02-28T01:59:00;8.48;;;3.63;;
14118;SDS011;7138;49.246;9.100;2023-02-28T02:01:28;10.23;;;4.22;;
14118;SDS011;7138;49.246;9.100;2023-02-28T02:03:56;9.23;;;3.75;;
14118;SDS011;7138;49.246;9.100;2023-02-28T02:06:27;7.93;;;3.80;;
14118;SDS011;7138;49.246;9.100;2023-02-28T02:08:58;7.13;;;3.67;;
14118;SDS011;7138;49.246;9.100;2023-02-28T02:11:24;10.05;;;3.90;;
14118;SDS011;7138;49.246;9.100;2023-02-28T02:16:37;7.97;;;3.42;;
14118;SDS011;7138;49.246;9.100;2023-02-28T02:19:30;6.32;;;3.50;;
14118;SDS011;7138;49.246;9.100;2023-02-28T02:22:49;6.18;;;3.42;;
14118;SDS011;7138;49.246;9.100;2023-02-28T02:25:42;8.85;;;3.88;;
14118;SDS011;7138;49.246;9.100;2023-02-28T02:31:41;5.82;;;2.63;;
14118;SDS011;7138;49.246;9.100;2023-02-28T02:34:44;5.63;;;3.05;;
14118;SDS011;7138;49.246;9.100;2023-02-28T02:37:25;8.65;;;3.45;;
14118;SDS011;7138;49.246;9.100;2023-02-28T02:40:04;7.45;;;3.75;;
14118;SDS011;7138;49.246;9.100;2023-02-28T02:42:41;6.25;;;3.60;;
14118;SDS011;7138;49.246;9.100;2023-02-28T02:45:16;6.63;;;3.78;;
14118;SDS011;7138;49.246;9.100;2023-02-28T02:47:51;7.97;;;3.85;;
14118;SDS011;7138;49.246;9.100;2023-02-28T02:50:21;6.18;;;3.50;;
14118;SDS011;7138;49.246;9.100;2023-02-28T02:52:55;8.35;;;4.00;;
14118;SDS011;7138;49.246;9.100;2023-02-28T02:55:26;8.45;;;4.13;;
14118;SDS011;7138;49.246;9.100;2023-02-28T02:57:57;8.38;;;4.07;;
14118;SDS011;7138;49.246;9.100;2023-02-28T03:00:29;7.00;;;3.30;;
14118;SDS011;7138;49.246;9.100;2023-02-28T03:02:59;7.20;;;3.78;;
14118;SDS011;7138;49.246;9.100;2023-02-28T03:05:29;6.47;;;3.60;;
14118;SDS011;7138;49.246;9.100;2023-02-28T03:08:02;8.07;;;3.60;;
14118;SDS011;7138;49.246;9.100;2023-02-28T03:10:35;5.88;;;3.15;;
14118;SDS011;7138;49.246;9.100;2023-02-28T03:13:11;7.57;;;3.90;;
14118;SDS011;7138;49.246;9.100;2023-02-28T03:16:22;8.38;;;4.05;;
14118;SDS011;7138;49.246;9.100;2023-02-28T03:19:24;10.57;;;4.15;;
14118;SDS011;7138;49.246;9.100;2023-02-28T03:22:21;6.97;;;4.32;;
14118;SDS011;7138;49.246;9.100;2023-02-28T03:25:09;8.25;;;4.40;;
14118;SDS011;7138;49.246;9.100;2023-02-28T03:27:47;8.77;;;4.88;;
14118;SDS011;7138;49.246;9.100;2023-02-28T03:30:26;9.20;;;4.75;;
14118;SDS011;7138;49.246;9.100;2023-02-28T03:33:03;8.73;;;4.40;;
14118;SDS011;7138;49.246;9.100;2023-02-28T03:35:36;9.93;;;5.30;;
14118;SDS011;7138;49.246;9.100;2023-02-28T03:38:08;7.75;;;4.40;;
14118;SDS011;7138;49.246;9.100;2023-02-28T03:40:42;8.38;;;4.43;;
14118;SDS011;7138;49.246;9.100;2023-02-28T03:43:14;8.02;;;4.78;;
14118;SDS011;7138;49.246;9.100;2023-02-28T03:45:47;9.57;;;4.40;;
14118;SDS011;7138;49.246;9.100;2023-02-28T03:48:17;7.40;;;4.83;;
14118;SDS011;7138;49.246;9.100;2023-02-28T03:50:48;9.27;;;4.80;;
14118;SDS011;7138;49.246;9.100;2023-02-28T03:53:23;6.68;;;3.97;;
14118;SDS011;7138;49.246;9.100;2023-02-28T03:55:58;8.98;;;4.80;;
14118;SDS011;7138;49.246;9.100;2023-02-28T03:58:31;8.55;;;4.43;;
14118;SDS011;7138;49.246;9.100;2023-02-28T04:01:07;9.98;;;5.00;;
14118;SDS011;7138;49.246;9.100;2023-02-28T04:03:37;9.35;;;5.10;;
14118;SDS011;7138;49.246;9.100;2023-02-28T04:06:04;8.02;;;4.47;;
14118;SDS011;7138;49.246;9.100;2023-02-28T04:08:39;9.13;;;4.80;;
14118;SDS011;7138;49.246;9.100;2023-02-28T04:11:06;12.48;;;5.45;;
14118;SDS011;7138;49.246;9.100;2023-02-28T04:13:46;9.88;;;5.47;;
14118;SDS011;7138;49.246;9.100;2023-02-28T04:16:12;8.10;;;4.90;;
14118;SDS011;7138;49.246;9.100;2023-02-28T04:18:38;9.55;;;5.72;;
14118;SDS011;7138;49.246;9.100;2023-02-28T04:21:05;9.43;;;4.95;;
14118;SDS011;7138;49.246;9.100;2023-02-28T04:23:31;9.13;;;4.80;;
14118;SDS011;7138;49.246;9.100;2023-02-28T04:25:58;8.30;;;4.38;;
14118;SDS011;7138;49.246;9.100;2023-02-28T04:28:25;10.70;;;4.95;;
14118;SDS011;7138;49.246;9.100;2023-02-28T04:30:54;11.45;;;4.90;;
14118;SDS011;7138;49.246;9.100;2023-02-28T04:33:21;6.78;;;3.72;;
14118;SDS011;7138;49.246;9.100;2023-02-28T04:35:46;10.70;;;5.22;;
14118;SDS011;7138;49.246;9.100;2023-02-28T04:38:12;8.95;;;4.70;;
14118;SDS011;7138;49.246;9.100;2023-02-28T04:40:38;12.02;;;5.65;;
14118;SDS011;7138;49.246;9.100;2023-02-28T04:43:05;9.82;;;4.85;;
14118;SDS011;7138;49.246;9.100;2023-02-28T04:45:31;9.10;;;5.20;;
14118;SDS011;7138;49.246;9.100;2023-02-28T04:47:58;10.50;;;5.65;;
14118;SDS011;7138;49.246;9.100;2023-02-28T04:50:24;9.35;;;5.38;;
14118;SDS011;7138;49.246;9.100;2023-02-28T04:52:50;9.98;;;4.80;;
14118;SDS011;7138;49.246;9.100;2023-02-28T04:55:16;9.88;;;4.95;;
14118;SDS011;7138;49.246;9.100;2023-02-28T04:57:41;17.67;;;6.53;;
14118;SDS011;7138;49.246;9.100;2023-02-28T05:00:09;9.32;;;4.70;;
14118;SDS011;7138;49.246;9.100;2023-02-28T05:02:37;10.15;;;5.10;;
14118;SDS011;7138;49.246;9.100;2023-02-28T05:05:04;9.65;;;4.72;;
14118;SDS011;7138;49.246;9.100;2023-02-28T05:07:31;9.23;;;4.82;;
14118;SDS011;7138;49.246;9.100;2023-02-28T05:09:56;9.68;;;4.57;;
14118;SDS011;7138;49.246;9.100;2023-02-28T05:12:22;10.95;;;4.50;;
14118;SDS011;7138;49.246;9.100;2023-02-28T05:14:48;8.70;;;4.65;;
14118;SDS011;7138;49.246;9.100;2023-02-28T05:17:15;8.48;;;4.88;;
14118;SDS011;7138;49.246;9.100;2023-02-28T05:19:41;10.55;;;4.93;;
14118;SDS011;7138;49.246;9.100;2023-02-28T05:22:11;9.27;;;4.57;;
14118;SDS011;7138;49.246;9.100;2023-02-28T05:24:39;9.07;;;4.43;;
14118;SDS011;7138;49.246;9.100;2023-02-28T05:27:07;11.35;;;4.55;;
14118;SDS011;7138;49.246;9.100;2023-02-28T05:29:34;10.20;;;4.60;;
14118;SDS011;7138;49.246;9.100;2023-02-28T05:32:08;8.07;;;4.25;;
14118;SDS011;7138;49.246;9.100;2023-02-28T05:34:37;7.63;;;4.40;;
14118;SDS011;7138;49.246;9.100;2023-02-28T05:37:03;8.43;;;5.00;;
14118;SDS011;7138;49.246;9.100;2023-02-28T05:39:29;8.68;;;5.13;;
14118;SDS011;7138;49.246;9.100;2023-02-28T05:41:55;9.93;;;4.45;;
14118;SDS011;7138;49.246;9.100;2023-02-28T05:44:21;9.07;;;4.45;;
14118;SDS011;7138;49.246;9.100;2023-02-28T05:46:47;7.95;;;4.57;;
14118;SDS011;7138;49.246;9.100;2023-02-28T05:49:12;7.57;;;4.50;;
14118;SDS011;7138;49.246;9.100;2023-02-28T05:51:40;8.25;;;4.82;;
14118;SDS011;7138;49.246;9.100;2023-02-28T05:54:06;11.32;;;5.65;;
14118;SDS011;7138;49.246;9.100;2023-02-28T05:56:32;8.18;;;4.70;;
14118;SDS011;7138;49.246;9.100;2023-02-28T05:59:00;10.00;;;5.03;;
14118;SDS011;7138;49.246;9.100;2023-02-28T06:01:31;9.73;;;4.38;;
14118;SDS011;7138;49.246;9.100;2023-02-28T06:03:59;8.68;;;4.97;;
14118;SDS011;7138;49.246;9.100;2023-02-28T06:06:26;10.15;;;4.95;;
14118;SDS011;7138;49.246;9.100;2023-02-28T06:08:53;8.60;;;4.57;;
14118;SDS011;7138;49.246;9.100;2023-02-28T06:11:19;10.68;;;5.07;;
14118;SDS011;7138;49.246;9.100;2023-02-28T06:13:45;8.80;;;5.00;;
14118;SDS011;7138;49.246;9.100;2023-02-28T06:16:11;10.70;;;5.35;;
14118;SDS011;7138;49.246;9.100;2023-02-28T06:18:37;10.65;;;4.80;;
14118;SDS011;7138;49.246;9.100;2023-02-28T06:21:03;10.25;;;5.15;;
14118;SDS011;7138;49.246;9.100;2023-02-28T06:23:29;9.13;;;4.80;;
14118;SDS011;7138;49.246;9.100;2023-02-28T06:25:56;9.43;;;5.03;;
14118;SDS011;7138;49.246;9.100;2023-02-28T06:28:23;9.95;;;5.07;;
14118;SDS011;7138;49.246;9.100;2023-02-28T06:30:50;8.73;;;4.47;;
14118;SDS011;7138;49.246;9.100;2023-02-28T06:33:16;9.90;;;4.88;;
14118;SDS011;7138;49.246;9.100;2023-02-28T06:35:43;9.93;;;4.85;;
14118;SDS011;7138;49.246;9.100;2023-02-28T06:38:09;10.50;;;6.03;;
14118;SDS011;7138;49.246;9.100;2023-02-28T06:40:35;9.32;;;4.97;;
14118;SDS011;7138;49.246;9.100;2023-02-28T06:43:03;9.77;;;4.88;;
14118;SDS011;7138;49.246;9.100;2023-02-28T06:45:29;11.70;;;5.55;;
14118;SDS011;7138;49.246;9.100;2023-02-28T06:47:55;9.35;;;5.05;;
14118;SDS011;7138;49.246;9.100;2023-02-28T06:50:21;9.57;;;4.78;;
14118;SDS011;7138;49.246;9.100;2023-02-28T06:52:46;8.77;;;4.60;;
14118;SDS011;7138;49.246;9.100;2023-02-28T06:55:12;9.60;;;5.25;;
14118;SDS011;7138;49.246;9.100;2023-02-28T06:57:38;12.57;;;6.22;;
14118;SDS011;7138;49.246;9.100;2023-02-28T07:00:06;9.27;;;5.30;;
14118;SDS011;7138;49.246;9.100;2023-02-28T07:02:35;10.48;;;5.20;;
14118;SDS011;7138;49.246;9.100;2023-02-28T07:05:02;11.10;;;5.22;;
14118;SDS011;7138;49.246;9.100;2023-02-28T07:07:29;9.20;;;4.85;;
14118;SDS011;7138;49.246;9.100;2023-02-28T07:09:55;9.90;;;4.72;;
14118;SDS011;7138;49.246;9.100;2023-02-28T07:12:21;9.88;;;5.18;;
14118;SDS011;7138;49.246;9.100;2023-02-28T07:14:47;9.95;;;5.55;;
14118;SDS011;7138;49.246;9.100;2023-02-28T07:17:14;10.00;;;5.38;;
14118;SDS011;7138;49.246;9.100;2023-02-28T07:19:40;9.27;;;5.15;;
14118;SDS011;7138;49.246;9.100;2023-02-28T07:22:06;9.20;;;5.05;;
14118;SDS011;7138;49.246;9.100;2023-02-28T07:24:32;8.18;;;4.95;;
14118;SDS011;7138;49.246;9.100;2023-02-28T07:26:58;10.35;;;5.20;;
14118;SDS011;7138;49.246;9.100;2023-02-28T07:29:24;8.07;;;4.57;;
14118;SDS011;7138;49.246;9.100;2023-02-28T07:31:50;9.73;;;5.15;;
14118;SDS011;7138;49.246;9.100;2023-02-28T07:34:19;10.60;;;5.43;;
14118;SDS011;7138;49.246;9.100;2023-02-28T07:36:45;9.73;;;5.38;;
14118;SDS011;7138;49.246;9.100;2023-02-28T07:39:11;9.40;;;5.47;;
14118;SDS011;7138;49.246;9.100;2023-02-28T07:41:37;9.98;;;5.03;;
14118;SDS011;7138;49.246;9.100;2023-02-28T07:44:08;9.30;;;5.15;;
14118;SDS011;7138;49.246;9.100;2023-02-28T07:46:34;11.98;;;5.60;;
14118;SDS011;7138;49.246;9.100;2023-02-28T07:49:01;9.90;;;5.07;;
14118;SDS011;7138;49.246;9.100;2023-02-28T07:51:29;9.68;;;4.45;;
14118;SDS011;7138;49.246;9.100;2023-02-28T07:53:56;9.35;;;5.50;;
14118;SDS011;7138;49.246;9.100;2023-02-28T07:56:22;10.05;;;5.30;;
14118;SDS011;7138;49.246;9.100;2023-02-28T07:58:48;10.73;;;6.10;;
14118;SDS011;7138;49.246;9.100;2023-02-28T08:01:14;8.68;;;5.25;;
14118;SDS011;7138;49.246;9.100;2023-02-28T08:03:42;8.35;;;5.00;;
14118;SDS011;7138;49.246;9.100;2023-02-28T08:06:11;9.48;;;5.72;;
14118;SDS011;7138;49.246;9.100;2023-02-28T08:08:43;10.98;;;5.35;;
14118;SDS011;7138;49.246;9.100;2023-02-28T08:11:09;9.07;;;5.03;;
14118;SDS011;7138;49.246;9.100;2023-02-28T08:13:35;10.40;;;5.10;;
14118;SDS011;7138;49.246;9.100;2023-02-28T08:16:01;10.70;;;5.45;;
14118;SDS011;7138;49.246;9.100;2023-02-28T08:18:27;9.02;;;5.13;;
14118;SDS011;7138;49.246;9.100;2023-02-28T08:20:53;11.90;;;5.68;;
14118;SDS011;7138;49.246;9.100;2023-02-28T08:23:19;10.38;;;5.75;;
14118;SDS011;7138;49.246;9.100;2023-02-28T08:25:52;10.55;;;5.30;;
14118;SDS011;7138;49.246;9.100;2023-02-28T08:28:18;13.15;;;5.47;;
14118;SDS011;7138;49.246;9.100;2023-02-28T08:30:44;8.90;;;5.18;;
14118;SDS011;7138;49.246;9.100;2023-02-28T08:33:10;11.55;;;5.85;;
14118;SDS011;7138;49.246;9.100;2023-02-28T08:35:36;9.82;;;5.32;;
14118;SDS011;7138;49.246;9.100;2023-02-28T08:38:02;10.10;;;5.90;;
14118;SDS011;7138;49.246;9.100;2023-02-28T08:40:28;9.70;;;6.00;;
14118;SDS011;7138;49.246;9.100;2023-02-28T08:42:55;11.60;;;6.18;;
14118;SDS011;7138;49.246;9.100;2023-02-28T08:45:21;10.55;;;4.80;;
14118;SDS011;7138;49.246;9.100;2023-02-28T08:47:47;10.43;;;5.90;;
14118;SDS011;7138;49.246;9.100;2023-02-28T08:50:13;9.77;;;5.53;;
14118;SDS011;7138;49.246;9.100;2023-02-28T08:52:41;10.23;;;5.72;;
14118;SDS011;7138;49.246;9.100;2023-02-28T08:55:08;10.48;;;5.65;;
14118;SDS011;7138;49.246;9.100;2023-02-28T08:57:35;10.13;;;5.80;;
14118;SDS011;7138;49.246;9.100;2023-02-28T09:00:02;9.30;;;5.50;;
14118;SDS011;7138;49.246;9.100;2023-02-28T09:02:29;10.68;;;5.35;;
14118;SDS011;7138;49.246;9.100;2023-02-28T09:04:55;9.20;;;5.55;;
14118;SDS011;7138;49.246;9.100;2023-02-28T09:07:21;11.55;;;6.15;;
14118;SDS011;7138;49.246;9.100;2023-02-28T09:09:46;11.30;;;6.22;;
14118;SDS011;7138;49.246;9.100;2023-02-28T09:12:18;9.38;;;5.50;;
14118;SDS011;7138;49.246;9.100;2023-02-28T09:14:44;9.95;;;5.65;;
14118;SDS011;7138;49.246;9.100;2023-02-28T09:17:12;12.02;;;5.95;;
14118;SDS011;7138;49.246;9.100;2023-02-28T09:19:38;10.95;;;5.88;;
14118;SDS011;7138;49.246;9.100;2023-02-28T09:22:03;11.98;;;6.40;;
14118;SDS011;7138;49.246;9.100;2023-02-28T09:24:29;9.32;;;5.50;;
14118;SDS011;7138;49.246;9.100;2023-02-28T09:26:56;12.32;;;6.05;;
14118;SDS011;7138;49.246;9.100;2023-02-28T09:29:22;13.30;;;6.47;;
14118;SDS011;7138;49.246;9.100;2023-02-28T09:31:48;11.93;;;6.20;;
14118;SDS011;7138;49.246;9.100;2023-02-28T09:34:16;12.38;;;6.22;;
14118;SDS011;7138;49.246;9.100;2023-02-28T09:36:42;11.85;;;6.25;;
14118;SDS011;7138;49.246;9.100;2023-02-28T09:39:08;9.88;;;5.90;;
14118;SDS011;7138;49.246;9.100;2023-02-28T09:41:36;10.57;;;5.93;;
14118;SDS011;7138;49.246;9.100;2023-02-28T09:44:12;12.10;;;6.35;;
14118;SDS011;7138;49.246;9.100;2023-02-28T09:46:46;11.50;;;5.90;;
14118;SDS011;7138;49.246;9.100;2023-02-28T09:49:22;9.88;;;6.10;;
14118;SDS011;7138;49.246;9.100;2023-02-28T09:51:55;11.45;;;6.65;;
14118;SDS011;7138;49.246;9.100;2023-02-28T09:54:27;13.38;;;5.97;;
14118;SDS011;7138;49.246;9.100;2023-02-28T09:56:56;10.85;;;6.78;;
14118;SDS011;7138;49.246;9.100;2023-02-28T09:59:32;12.55;;;6.43;;
14118;SDS011;7138;49.246;9.100;2023-02-28T10:02:13;11.82;;;7.25;;
14118;SDS011;7138;49.246;9.100;2023-02-28T10:05:06;11.80;;;6.88;;
14118;SDS011;7138;49.246;9.100;2023-02-28T10:07:41;11.32;;;6.30;;
14118;SDS011;7138;49.246;9.100;2023-02-28T10:10:37;11.23;;;6.20;;
14118;SDS011;7138;49.246;9.100;2023-02-28T10:13:07;10.75;;;6.65;;
14118;SDS011;7138;49.246;9.100;2023-02-28T10:15:42;9.88;;;6.57;;
14118;SDS011;7138;49.246;9.100;2023-02-28T10:18:15;13.68;;;6.95;;
14118;SDS011;7138;49.246;9.100;2023-02-28T10:20:50;10.52;;;6.07;;
14118;SDS011;7138;49.246;9.100;2023-02-28T10:23:21;11.02;;;7.20;;
14118;SDS011;7138;49.246;9.100;2023-02-28T10:25:54;10.32;;;5.85;;
14118;SDS011;7138;49.246;9.100;2023-02-28T10:28:24;10.02;;;5.97;;
14118;SDS011;7138;49.246;9.100;2023-02-28T10:30:54;10.38;;;5.57;;
14118;SDS011;7138;49.246;9.100;2023-02-28T10:33:22;12.52;;;6.65;;
14118;SDS011;7138;49.246;9.100;2023-02-28T10:35:54;10.95;;;6.75;;
14118;SDS011;7138;49.246;9.100;2023-02-28T10:38:21;15.63;;;7.00;;
14118;SDS011;7138;49.246;9.100;2023-02-28T10:40:50;11.05;;;6.45;;
14118;SDS011;7138;49.246;9.100;2023-02-28T10:43:23;11.05;;;6.03;;
14118;SDS011;7138;49.246;9.100;2023-02-28T10:45:53;9.73;;;5.80;;
14118;SDS011;7138;49.246;9.100;2023-02-28T10:48:26;12.00;;;6.32;;
14118;SDS011;7138;49.246;9.100;2023-02-28T10:50:59;14.25;;;7.40;;
14118;SDS011;7138;49.246;9.100;2023-02-28T10:53:30;11.00;;;6.38;;
14118;SDS011;7138;49.246;9.100;2023-02-28T10:56:02;13.50;;;6.80;;
14118;SDS011;7138;49.246;9.100;2023-02-28T10:58:34;11.43;;;7.05;;
14118;SDS011;7138;49.246;9.100;2023-02-28T11:01:15;12.55;;;6.38;;
14118;SDS011;7138;49.246;9.100;2023-02-28T11:03:43;10.80;;;6.82;;
14118;SDS011;7138;49.246;9.100;2023-02-28T11:06:14;11.43;;;5.97;;
14118;SDS011;7138;49.246;9.100;2023-02-28T11:08:45;12.15;;;6.90;;
14118;SDS011;7138;49.246;9.100;2023-02-28T11:11:14;10.80;;;6.80;;
14118;SDS011;7138;49.246;9.100;2023-02-28T11:13:41;11.40;;;6.90;;
14118;SDS011;7138;49.246;9.100;2023-02-28T11:16:12;11.68;;;6.93;;
14118;SDS011;7138;49.246;9.100;2023-02-28T11:18:41;11.40;;;7.15;;
14118;SDS011;7138;49.246;9.100;2023-02-28T11:21:18;11.30;;;6.70;;
14118;SDS011;7138;49.246;9.100;2023-02-28T11:23:51;10.77;;;6.70;;
14118;SDS011;7138;49.246;9.100;2023-02-28T11:26:35;10.85;;;6.63;;
14118;SDS011;7138;49.246;9.100;2023-02-28T11:29:17;11.48;;;6.53;;
14118;SDS011;7138;49.246;9.100;2023-02-28T11:32:03;10.65;;;6.82;;
14118;SDS011;7138;49.246;9.100;2023-02-28T11:34:37;13.32;;;6.93;;
14118;SDS011;7138;49.246;9.100;2023-02-28T11:37:09;12.05;;;6.97;;
14118;SDS011;7138;49.246;9.100;2023-02-28T11:39:41;11.35;;;7.07;;
14118;SDS011;7138;49.246;9.100;2023-02-28T11:42:18;10.75;;;7.13;;
14118;SDS011;7138;49.246;9.100;2023-02-28T11:45:08;10.65;;;6.40;;
14118;SDS011;7138;49.246;9.100;2023-02-28T11:47:48;11.98;;;6.95;;
14118;SDS011;7138;49.246;9.100;2023-02-28T11:50:32;10.88;;;6.95;;
14118;SDS011;7138;49.246;9.100;2023-02-28T11:53:16;10.52;;;6.40;;
14118;SDS011;7138;49.246;9.100;2023-02-28T11:55:52;11.52;;;7.50;;
14118;SDS011;7138;49.246;9.100;2023-02-28T11:58:30;13.48;;;7.60;;
14118;SDS011;7138;49.246;9.100;2023-02-28T12:01:14;12.15;;;6.85;;
14118;SDS011;7138;49.246;9.100;2023-02-28T12:04:00;11.07;;;6.97;;
14118;SDS011;7138;49.246;9.100;2023-02-28T12:06:43;13.25;;;7.40;;
14118;SDS011;7138;49.246;9.100;2023-02-28T12:09:28;11.00;;;7.00;;
14118;SDS011;7138;49.246;9.100;2023-02-28T12:12:15;12.35;;;7.63;;
14118;SDS011;7138;49.246;9.100;2023-02-28T12:15:05;13.23;;;8.00;;
14118;SDS011;7138;49.246;9.100;2023-02-28T12:20:37;12.70;;;7.90;;
14118;SDS011;7138;49.246;9.100;2023-02-28T12:23:19;13.90;;;7.50;;
14118;SDS011;7138;49.246;9.100;2023-02-28T12:26:11;13.30;;;7.88;;
14118;SDS011;7138;49.246;9.100;2023-02-28T12:28:49;11.85;;;7.68;;
14118;SDS011;7138;49.246;9.100;2023-02-28T12:31:24;15.35;;;8.60;;
14118;SDS011;7138;49.246;9.100;2023-02-28T12:33:59;13.60;;;8.30;;
14118;SDS011;7138;49.246;9.100;2023-02-28T12:36:34;12.77;;;7.65;;
14118;SDS011;7138;49.246;9.100;2023-02-28T12:39:03;12.20;;;7.60;;
14118;SDS011;7138;49.246;9.100;2023-02-28T12:41:40;12.65;;;8.23;;
14118;SDS011;7138;49.246;9.100;2023-02-28T12:44:12;11.85;;;7.75;;
14118;SDS011;7138;49.246;9.100;2023-02-28T12:46:46;13.55;;;8.00;;
14118;SDS011;7138;49.246;9.100;2023-02-28T12:49:17;14.85;;;8.38;;
14118;SDS011;7138;49.246;9.100;2023-02-28T12:51:50;12.52;;;7.68;;
14118;SDS011;7138;49.246;9.100;2023-02-28T12:54:19;14.18;;;8.15;;
14118;SDS011;7138;49.246;9.100;2023-02-28T12:56:56;15.52;;;7.90;;
14118;SDS011;7138;49.246;9.100;2023-02-28T12:59:36;12.75;;;8.05;;
14118;SDS011;7138;49.246;9.100;2023-02-28T13:02:33;12.80;;;8.07;;
14118;SDS011;7138;49.246;9.100;2023-02-28T13:08:44;11.73;;;8.25;;
14118;SDS011;7138;49.246;9.100;2023-02-28T13:11:38;11.27;;;7.75;;
14118;SDS011;7138;49.246;9.100;2023-02-28T13:14:16;11.98;;;8.18;;
14118;SDS011;7138;49.246;9.100;2023-02-28T13:16:56;12.00;;;7.85;;
14118;SDS011;7138;49.246;9.100;2023-02-28T13:19:27;11.52;;;7.45;;
14118;SDS011;7138;49.246;9.100;2023-02-28T13:21:57;11.70;;;7.65;;
14118;SDS011;7138;49.246;9.100;2023-02-28T13:24:41;16.15;;;7.78;;
14118;SDS011;7138;49.246;9.100;2023-02-28T13:27:22;11.93;;;7.18;;
14118;SDS011;7138;49.246;9.100;2023-02-28T13:30:02;12.68;;;7.55;;
14118;SDS011;7138;49.246;9.100;2023-02-28T13:33:27;11.60;;;7.88;;
14118;SDS011;7138;49.246;9.100;2023-02-28T13:36:08;13.50;;;7.65;;
14118;SDS011;7138;49.246;9.100;2023-02-28T13:38:49;14.25;;;8.20;;
14118;SDS011;7138;49.246;9.100;2023-02-28T13:44:14;15.20;;;8.00;;
14118;SDS011;7138;49.246;9.100;2023-02-28T13:50:14;12.50;;;7.97;;
14118;SDS011;7138;49.246;9.100;2023-02-28T13:52:48;15.15;;;8.45;;
14118;SDS011;7138;49.246;9.100;2023-02-28T13:55:31;14.30;;;8.63;;
14118;SDS011;7138;49.246;9.100;2023-02-28T13:58:17;11.73;;;7.65;;
14118;SDS011;7138;49.246;9.100;2023-02-28T14:01:10;17.65;;;8.65;;
14118;SDS011;7138;49.246;9.100;2023-02-28T14:04:09;12.85;;;8.18;;
14118;SDS011;7138;49.246;9.100;2023-02-28T14:07:08;13.73;;;7.97;;
14118;SDS011;7138;49.246;9.100;2023-02-28T14:09:45;12.23;;;8.30;;
14118;SDS011;7138;49.246;9.100;2023-02-28T14:15:47;12.68;;;8.32;;
14118;SDS011;7138;49.246;9.100;2023-02-28T14:18:28;11.50;;;7.80;;
14118;SDS011;7138;49.246;9.100;2023-02-28T14:21:01;12.57;;;7.72;;
14118;SDS011;7138;49.246;9.100;2023-02-28T14:24:10;13.60;;;8.43;;
14118;SDS011;7138;49.246;9.100;2023-02-28T14:27:03;13.25;;;7.75;;
14118;SDS011;7138;49.246;9.100;2023-02-28T14:29:47;14.13;;;8.13;;
14118;SDS011;7138;49.246;9.100;2023-02-28T14:32:47;13.77;;;8.18;;
14118;SDS011;7138;49.246;9.100;2023-02-28T14:35:36;13.15;;;8.05;;
14118;SDS011;7138;49.246;9.100;2023-02-28T14:38:19;12.32;;;8.63;;
14118;SDS011;7138;49.246;9.100;2023-02-28T14:40:51;15.20;;;8.45;;
14118;SDS011;7138;49.246;9.100;2023-02-28T14:43:20;12.43;;;8.32;;
14118;SDS011;7138;49.246;9.100;2023-02-28T14:45:50;13.40;;;8.15;;
14118;SDS011;7138;49.246;9.100;2023-02-28T14:48:20;14.48;;;8.82;;
14118;SDS011;7138;49.246;9.100;2023-02-28T14:50:48;12.88;;;7.72;;
14118;SDS011;7138;49.246;9.100;2023-02-28T14:53:18;14.15;;;8.25;;
14118;SDS011;7138;49.246;9.100;2023-02-28T14:55:48;13.32;;;8.05;;
14118;SDS011;7138;49.246;9.100;2023-02-28T14:58:21;12.65;;;8.27;;
14118;SDS011;7138;49.246;9.100;2023-02-28T15:00:52;14.20;;;7.80;;
14118;SDS011;7138;49.246;9.100;2023-02-28T15:03:20;12.63;;;7.60;;
14118;SDS011;7138;49.246;9.100;2023-02-28T15:05:52;10.63;;;6.65;;
14118;SDS011;7138;49.246;9.100;2023-02-28T15:08:22;14.20;;;7.68;;
14118;SDS011;7138;49.246;9.100;2023-02-28T15:10:53;12.55;;;7.80;;
14118;SDS011;7138;49.246;9.100;2023-02-28T15:13:21;13.25;;;7.93;;
14118;SDS011;7138;49.246;9.100;2023-02-28T15:18:28;14.20;;;8.13;;
14118;SDS011;7138;49.246;9.100;2023-02-28T15:21:05;13.07;;;7.68;;
14118;SDS011;7138;49.246;9.100;2023-02-28T15:23:37;15.80;;;8.25;;
14118;SDS011;7138;49.246;9.100;2023-02-28T15:26:09;13.82;;;7.75;;
14118;SDS011;7138;49.246;9.100;2023-02-28T15:28:41;14.73;;;8.77;;
14118;SDS011;7138;49.246;9.100;2023-02-28T15:31:17;15.07;;;8.68;;
14118;SDS011;7138;49.246;9.100;2023-02-28T15:33:55;13.00;;;8.10;;
14118;SDS011;7138;49.246;9.100;2023-02-28T15:36:24;11.85;;;7.35;;
14118;SDS011;7138;49.246;9.100;2023-02-28T15:38:55;12.35;;;7.95;;
14118;SDS011;7138;49.246;9.100;2023-02-28T15:41:23;12.45;;;7.78;;
14118;SDS011;7138;49.246;9.100;2023-02-28T15:46:53;12.45;;;7.47;;
14118;SDS011;7138;49.246;9.100;2023-02-28T15:49:24;13.13;;;8.18;;
14118;SDS011;7138;49.246;9.100;2023-02-28T15:51:51;13.98;;;8.65;;